sensor_id;sensor_type;location;lat;lon;timestamp;pressure;altitude;pressure_sealevel;temperature;humidity
41830;BME280;38614;43.472;23.936;2023-03-03T00:00:54;100645.22;;;4.00;nan
41830;BME280;38614;43.472;23.936;2023-03-03T00:03:42;100660.91;;;3.95;nan
41830;BME280;38614;43.472;23.936;2023-03-03T00:06:32;100646.22;;;3.91;nan
41830;BME280;38614;43.472;23.936;2023-03-03T00:09:19;100639.91;;;3.77;nan
41830;BME280;38614;43.472;23.936;2023-03-03T00:12:30;100642.66;;;3.77;nan
41830;BME280;38614;43.472;23.936;2023-03-03T00:15:23;100647.31;;;3.90;nan
41830;BME280;38614;43.472;23.936;2023-03-03T00:21:40;100631.34;;;3.83;nan
41830;BME280;38614;43.472;23.936;2023-03-03T00:24:36;100610.53;;;3.68;nan
41830;BME280;38614;43.472;23.936;2023-03-03T00:27:30;100635.66;;;3.70;nan
41830;BME280;38614;43.472;23.936;2023-03-03T00:30:25;100624.03;;;3.79;nan
41830;BME280;38614;43.472;23.936;2023-03-03T00:33:35;100627.59;;;3.93;nan
41830;BME280;38614;43.472;23.936;2023-03-03T00:36:37;100615.31;;;3.90;nan
41830;BME280;38614;43.472;23.936;2023-03-03T00:39:36;100617.84;;;3.87;nan
41830;BME280;38614;43.472;23.936;2023-03-03T00:42:25;100612.19;;;3.83;nan
41830;BME280;38614;43.472;23.936;2023-03-03T00:48:41;100610.03;;;3.80;nan
41830;BME280;38614;43.472;23.936;2023-03-03T00:51:31;100607.41;;;3.89;nan
41830;BME280;38614;43.472;23.936;2023-03-03T00:54:20;100603.78;;;3.93;nan
41830;BME280;38614;43.472;23.936;2023-03-03T00:57:09;100581.59;;;3.81;nan
41830;BME280;38614;43.472;23.936;2023-03-03T01:00:00;100571.47;;;3.68;nan
41830;BME280;38614;43.472;23.936;2023-03-03T01:02:50;100586.06;;;3.77;nan
41830;BME280;38614;43.472;23.936;2023-03-03T01:05:38;100598.09;;;3.90;nan
41830;BME280;38614;43.472;23.936;2023-03-03T01:08:26;100594.97;;;3.83;nan
41830;BME280;38614;43.472;23.936;2023-03-03T01:11:17;100601.25;;;3.83;nan
41830;BME280;38614;43.472;23.936;2023-03-03T01:14:07;100603.06;;;3.88;nan
41830;BME280;38614;43.472;23.936;2023-03-03T01:16:55;100576.44;;;3.80;nan
41830;BME280;38614;43.472;23.936;2023-03-03T01:19:43;100593.97;;;3.92;nan
41830;BME280;38614;43.472;23.936;2023-03-03T01:22:35;100602.38;;;3.96;nan
41830;BME280;38614;43.472;23.936;2023-03-03T01:25:23;100597.41;;;3.98;nan
41830;BME280;38614;43.472;23.936;2023-03-03T01:28:10;100592.75;;;3.98;nan
41830;BME280;38614;43.472;23.936;2023-03-03T01:31:03;100599.00;;;3.99;nan
41830;BME280;38614;43.472;23.936;2023-03-03T01:33:51;100571.78;;;3.80;nan
41830;BME280;38614;43.472;23.936;2023-03-03T01:36:39;100585.16;;;3.95;nan
41830;BME280;38614;43.472;23.936;2023-03-03T01:39:27;100529.75;;;3.62;nan
41830;BME280;38614;43.472;23.936;2023-03-03T01:42:14;100572.31;;;3.82;nan
41830;BME280;38614;43.472;23.936;2023-03-03T01:45:13;100544.22;;;3.63;nan
41830;BME280;38614;43.472;23.936;2023-03-03T01:48:17;100572.28;;;3.96;nan
41830;BME280;38614;43.472;23.936;2023-03-03T01:51:14;100562.06;;;3.88;nan
41830;BME280;38614;43.472;23.936;2023-03-03T01:54:14;100553.97;;;3.83;nan
41830;BME280;38614;43.472;23.936;2023-03-03T01:57:05;100537.66;;;3.78;nan
41830;BME280;38614;43.472;23.936;2023-03-03T01:59:58;100559.00;;;3.89;nan
41830;BME280;38614;43.472;23.936;2023-03-03T02:02:58;100558.31;;;3.84;nan
41830;BME280;38614;43.472;23.936;2023-03-03T02:05:48;100556.19;;;3.81;nan
41830;BME280;38614;43.472;23.936;2023-03-03T02:11:43;100557.53;;;3.83;nan
41830;BME280;38614;43.472;23.936;2023-03-03T02:14:31;100551.94;;;3.75;nan
41830;BME280;38614;43.472;23.936;2023-03-03T02:17:19;100545.34;;;3.89;nan
41830;BME280;38614;43.472;23.936;2023-03-03T02:20:27;100541.13;;;3.83;nan
41830;BME280;38614;43.472;23.936;2023-03-03T02:26:27;100542.50;;;3.81;nan
41830;BME280;38614;43.472;23.936;2023-03-03T02:29:20;100549.81;;;3.85;nan
41830;BME280;38614;43.472;23.936;2023-03-03T02:32:08;100531.19;;;3.74;nan
41830;BME280;38614;43.472;23.936;2023-03-03T02:34:55;100528.97;;;3.76;nan
41830;BME280;38614;43.472;23.936;2023-03-03T02:37:43;100540.31;;;3.83;nan
41830;BME280;38614;43.472;23.936;2023-03-03T02:40:35;100525.53;;;3.84;nan
41830;BME280;38614;43.472;23.936;2023-03-03T02:43:30;100550.28;;;4.15;nan
41830;BME280;38614;43.472;23.936;2023-03-03T02:46:21;100546.78;;;4.00;nan
41830;BME280;38614;43.472;23.936;2023-03-03T02:49:11;100550.19;;;4.06;nan
41830;BME280;38614;43.472;23.936;2023-03-03T02:52:03;100549.41;;;3.92;nan
41830;BME280;38614;43.472;23.936;2023-03-03T02:54:52;100525.13;;;3.77;nan
41830;BME280;38614;43.472;23.936;2023-03-03T02:57:40;100546.97;;;3.90;nan
41830;BME280;38614;43.472;23.936;2023-03-03T03:00:28;100549.00;;;3.85;nan
41830;BME280;38614;43.472;23.936;2023-03-03T03:03:16;100540.50;;;3.72;nan
41830;BME280;38614;43.472;23.936;2023-03-03T03:06:04;100538.38;;;3.69;nan
41830;BME280;38614;43.472;23.936;2023-03-03T03:08:53;100556.28;;;3.89;nan
41830;BME280;38614;43.472;23.936;2023-03-03T03:11:41;100546.78;;;3.87;nan
41830;BME280;38614;43.472;23.936;2023-03-03T03:14:30;100559.72;;;3.95;nan
41830;BME280;38614;43.472;23.936;2023-03-03T03:17:20;100550.41;;;3.96;nan
41830;BME280;38614;43.472;23.936;2023-03-03T03:20:11;100546.59;;;3.83;nan
41830;BME280;38614;43.472;23.936;2023-03-03T03:23:06;100533.41;;;3.58;nan
41830;BME280;38614;43.472;23.936;2023-03-03T03:25:54;100534.13;;;3.77;nan
41830;BME280;38614;43.472;23.936;2023-03-03T03:28:47;100542.72;;;3.70;nan
41830;BME280;38614;43.472;23.936;2023-03-03T03:31:35;100533.13;;;3.73;nan
41830;BME280;38614;43.472;23.936;2023-03-03T03:34:23;100530.06;;;3.88;nan
41830;BME280;38614;43.472;23.936;2023-03-03T03:37:12;100532.81;;;3.75;nan
41830;BME280;38614;43.472;23.936;2023-03-03T03:40:04;100521.06;;;3.74;nan
41830;BME280;38614;43.472;23.936;2023-03-03T03:42:53;100512.16;;;3.68;nan
41830;BME280;38614;43.472;23.936;2023-03-03T03:45:42;100486.66;;;3.59;nan
41830;BME280;38614;43.472;23.936;2023-03-03T03:48:32;100513.97;;;3.87;nan
41830;BME280;38614;43.472;23.936;2023-03-03T03:51:21;100518.09;;;3.98;nan
41830;BME280;38614;43.472;23.936;2023-03-03T03:54:09;100515.59;;;3.88;nan
41830;BME280;38614;43.472;23.936;2023-03-03T03:56:58;100501.22;;;3.68;nan
41830;BME280;38614;43.472;23.936;2023-03-03T03:59:48;100506.88;;;3.86;nan
41830;BME280;38614;43.472;23.936;2023-03-03T04:02:36;100499.38;;;3.78;nan
41830;BME280;38614;43.472;23.936;2023-03-03T04:05:25;100513.25;;;3.81;nan
41830;BME280;38614;43.472;23.936;2023-03-03T04:08:15;100498.97;;;3.70;nan
41830;BME280;38614;43.472;23.936;2023-03-03T04:11:03;100485.00;;;3.72;nan
41830;BME280;38614;43.472;23.936;2023-03-03T04:13:51;100515.38;;;3.84;nan
41830;BME280;38614;43.472;23.936;2023-03-03T04:16:40;100478.53;;;3.68;nan
41830;BME280;38614;43.472;23.936;2023-03-03T04:19:28;100508.41;;;3.92;nan
41830;BME280;38614;43.472;23.936;2023-03-03T04:22:16;100510.13;;;3.88;nan
41830;BME280;38614;43.472;23.936;2023-03-03T04:25:05;100494.72;;;3.92;nan
41830;BME280;38614;43.472;23.936;2023-03-03T04:27:58;100483.41;;;3.85;nan
41830;BME280;38614;43.472;23.936;2023-03-03T04:30:46;100498.38;;;3.87;nan
41830;BME280;38614;43.472;23.936;2023-03-03T04:33:36;100477.63;;;3.86;nan
41830;BME280;38614;43.472;23.936;2023-03-03T04:36:24;100486.66;;;3.73;nan
41830;BME280;38614;43.472;23.936;2023-03-03T04:39:12;100492.31;;;3.77;nan
41830;BME280;38614;43.472;23.936;2023-03-03T04:42:00;100468.13;;;3.56;nan
41830;BME280;38614;43.472;23.936;2023-03-03T04:44:48;100491.91;;;3.69;nan
41830;BME280;38614;43.472;23.936;2023-03-03T04:47:36;100489.19;;;3.56;nan
41830;BME280;38614;43.472;23.936;2023-03-03T04:50:24;100494.75;;;3.64;nan
41830;BME280;38614;43.472;23.936;2023-03-03T04:53:12;100477.13;;;3.57;nan
41830;BME280;38614;43.472;23.936;2023-03-03T04:56:01;100455.38;;;3.38;nan
41830;BME280;38614;43.472;23.936;2023-03-03T04:58:51;100475.00;;;3.67;nan
41830;BME280;38614;43.472;23.936;2023-03-03T05:01:38;100482.78;;;3.60;nan
41830;BME280;38614;43.472;23.936;2023-03-03T05:04:26;100489.28;;;3.64;nan
41830;BME280;38614;43.472;23.936;2023-03-03T05:07:14;100492.09;;;3.59;nan
41830;BME280;38614;43.472;23.936;2023-03-03T05:10:02;100489.38;;;3.59;nan
41830;BME280;38614;43.472;23.936;2023-03-03T05:12:50;100496.25;;;3.70;nan
41830;BME280;38614;43.472;23.936;2023-03-03T05:15:37;100494.13;;;3.67;nan
41830;BME280;38614;43.472;23.936;2023-03-03T05:18:29;100490.69;;;3.76;nan
41830;BME280;38614;43.472;23.936;2023-03-03T05:21:16;100501.50;;;3.81;nan
41830;BME280;38614;43.472;23.936;2023-03-03T05:24:08;100500.19;;;3.78;nan
41830;BME280;38614;43.472;23.936;2023-03-03T05:26:57;100492.50;;;3.80;nan
41830;BME280;38614;43.472;23.936;2023-03-03T05:29:49;100496.13;;;3.89;nan
41830;BME280;38614;43.472;23.936;2023-03-03T05:32:39;100497.56;;;3.87;nan
41830;BME280;38614;43.472;23.936;2023-03-03T05:35:27;100472.38;;;3.76;nan
41830;BME280;38614;43.472;23.936;2023-03-03T05:38:15;100479.31;;;3.96;nan
41830;BME280;38614;43.472;23.936;2023-03-03T05:41:02;100491.50;;;3.76;nan
41830;BME280;38614;43.472;23.936;2023-03-03T05:43:50;100476.63;;;3.82;nan
41830;BME280;38614;43.472;23.936;2023-03-03T05:46:38;100489.34;;;3.87;nan
41830;BME280;38614;43.472;23.936;2023-03-03T05:50:42;100490.88;;;3.93;100.00
41830;BME280;38614;43.472;23.936;2023-03-03T05:53:30;100490.16;;;4.01;100.00
41830;BME280;38614;43.472;23.936;2023-03-03T05:56:17;100492.69;;;3.97;100.00
41830;BME280;38614;43.472;23.936;2023-03-03T05:59:12;100502.00;;;4.10;100.00
41830;BME280;38614;43.472;23.936;2023-03-03T06:02:02;100500.28;;;4.00;100.00
41830;BME280;38614;43.472;23.936;2023-03-03T06:04:50;100497.69;;;4.18;100.00
41830;BME280;38614;43.472;23.936;2023-03-03T06:07:38;100490.94;;;4.15;100.00
41830;BME280;38614;43.472;23.936;2023-03-03T06:10:26;100481.97;;;4.01;100.00
41830;BME280;38614;43.472;23.936;2023-03-03T06:13:17;100469.28;;;4.05;100.00
41830;BME280;38614;43.472;23.936;2023-03-03T06:16:06;100508.63;;;4.18;100.00
41830;BME280;38614;43.472;23.936;2023-03-03T06:18:54;100500.06;;;4.11;100.00
41830;BME280;38614;43.472;23.936;2023-03-03T06:21:42;100478.28;;;4.06;100.00
41830;BME280;38614;43.472;23.936;2023-03-03T06:24:30;100504.28;;;4.31;100.00
41830;BME280;38614;43.472;23.936;2023-03-03T06:27:18;100503.78;;;4.28;100.00
41830;BME280;38614;43.472;23.936;2023-03-03T06:30:06;100509.03;;;4.25;100.00
41830;BME280;38614;43.472;23.936;2023-03-03T06:33:04;100507.41;;;4.24;100.00
41830;BME280;38614;43.472;23.936;2023-03-03T06:35:54;100513.50;;;4.21;100.00
41830;BME280;38614;43.472;23.936;2023-03-03T06:38:43;100505.41;;;4.16;100.00
41830;BME280;38614;43.472;23.936;2023-03-03T06:41:31;100515.00;;;4.27;100.00
41830;BME280;38614;43.472;23.936;2023-03-03T06:44:18;100497.78;;;4.26;100.00
41830;BME280;38614;43.472;23.936;2023-03-03T06:47:06;100495.81;;;4.41;100.00
41830;BME280;38614;43.472;23.936;2023-03-03T06:49:54;100488.00;;;4.12;100.00
41830;BME280;38614;43.472;23.936;2023-03-03T06:52:42;100497.63;;;4.09;100.00
41830;BME280;38614;43.472;23.936;2023-03-03T06:55:30;100506.63;;;4.23;100.00
41830;BME280;38614;43.472;23.936;2023-03-03T06:58:20;100498.31;;;4.28;100.00
41830;BME280;38614;43.472;23.936;2023-03-03T07:01:15;100507.72;;;4.22;100.00
41830;BME280;38614;43.472;23.936;2023-03-03T07:04:32;100514.81;;;4.23;100.00
41830;BME280;38614;43.472;23.936;2023-03-03T07:07:24;100500.44;;;4.18;100.00
41830;BME280;38614;43.472;23.936;2023-03-03T07:10:19;100510.16;;;4.24;100.00
41830;BME280;38614;43.472;23.936;2023-03-03T07:13:27;100480.53;;;4.04;100.00
41830;BME280;38614;43.472;23.936;2023-03-03T07:16:23;100512.88;;;4.38;100.00
41830;BME280;38614;43.472;23.936;2023-03-03T07:19:30;100487.72;;;4.36;100.00
41830;BME280;38614;43.472;23.936;2023-03-03T07:22:22;100509.91;;;4.34;100.00
41830;BME280;38614;43.472;23.936;2023-03-03T07:25:33;100514.50;;;4.25;100.00
41830;BME280;38614;43.472;23.936;2023-03-03T07:28:27;100506.16;;;4.44;100.00
41830;BME280;38614;43.472;23.936;2023-03-03T07:31:29;100508.78;;;4.71;100.00
41830;BME280;38614;43.472;23.936;2023-03-03T07:34:37;100498.56;;;4.63;100.00
41830;BME280;38614;43.472;23.936;2023-03-03T07:37:39;100513.13;;;4.72;100.00
41830;BME280;38614;43.472;23.936;2023-03-03T07:40:37;100487.81;;;4.67;100.00
41830;BME280;38614;43.472;23.936;2023-03-03T07:46:44;100499.03;;;4.56;100.00
41830;BME280;38614;43.472;23.936;2023-03-03T07:49:36;100493.97;;;4.50;100.00
41830;BME280;38614;43.472;23.936;2023-03-03T07:55:33;100499.03;;;4.56;100.00
41830;BME280;38614;43.472;23.936;2023-03-03T07:58:27;100485.09;;;4.67;100.00
41830;BME280;38614;43.472;23.936;2023-03-03T08:01:38;100490.09;;;4.73;100.00
41830;BME280;38614;43.472;23.936;2023-03-03T08:04:46;100477.16;;;4.65;100.00
41830;BME280;38614;43.472;23.936;2023-03-03T08:07:39;100483.91;;;4.59;100.00
41830;BME280;38614;43.472;23.936;2023-03-03T08:10:49;100484.69;;;4.82;100.00
41830;BME280;38614;43.472;23.936;2023-03-03T08:13:40;100464.34;;;4.97;100.00
41830;BME280;38614;43.472;23.936;2023-03-03T08:16:37;100471.31;;;5.03;100.00
41830;BME280;38614;43.472;23.936;2023-03-03T08:19:26;100464.44;;;4.92;100.00
41830;BME280;38614;43.472;23.936;2023-03-03T08:22:34;100480.00;;;5.05;100.00
41830;BME280;38614;43.472;23.936;2023-03-03T08:25:27;100477.94;;;5.10;100.00
41830;BME280;38614;43.472;23.936;2023-03-03T08:28:15;100479.41;;;5.17;100.00
41830;BME280;38614;43.472;23.936;2023-03-03T08:31:03;100460.19;;;5.08;100.00
41830;BME280;38614;43.472;23.936;2023-03-03T08:34:06;100464.69;;;5.04;100.00
41830;BME280;38614;43.472;23.936;2023-03-03T08:36:54;100458.66;;;5.24;100.00
41830;BME280;38614;43.472;23.936;2023-03-03T08:39:44;100460.59;;;5.24;100.00
41830;BME280;38614;43.472;23.936;2023-03-03T08:42:32;100471.63;;;5.41;100.00
41830;BME280;38614;43.472;23.936;2023-03-03T08:45:20;100470.00;;;5.31;100.00
41830;BME280;38614;43.472;23.936;2023-03-03T08:48:08;100426.16;;;5.00;100.00
41830;BME280;38614;43.472;23.936;2023-03-03T08:50:56;100453.75;;;5.04;100.00
41830;BME280;38614;43.472;23.936;2023-03-03T08:53:43;100448.34;;;5.21;100.00
41830;BME280;38614;43.472;23.936;2023-03-03T08:56:31;100452.19;;;5.20;100.00
41830;BME280;38614;43.472;23.936;2023-03-03T08:59:19;100452.47;;;5.41;100.00
41830;BME280;38614;43.472;23.936;2023-03-03T09:02:07;100443.75;;;5.48;100.00
41830;BME280;38614;43.472;23.936;2023-03-03T09:04:55;100451.41;;;5.68;100.00
41830;BME280;38614;43.472;23.936;2023-03-03T09:07:43;100449.75;;;5.50;100.00
41830;BME280;38614;43.472;23.936;2023-03-03T09:10:34;100448.72;;;5.37;100.00
41830;BME280;38614;43.472;23.936;2023-03-03T09:13:23;100450.19;;;5.43;100.00
41830;BME280;38614;43.472;23.936;2023-03-03T09:16:14;100452.97;;;5.52;100.00
41830;BME280;38614;43.472;23.936;2023-03-03T09:19:15;100435.81;;;5.37;100.00
41830;BME280;38614;43.472;23.936;2023-03-03T09:22:23;100445.25;;;5.62;100.00
41830;BME280;38614;43.472;23.936;2023-03-03T09:28:31;100439.31;;;5.69;100.00
41830;BME280;38614;43.472;23.936;2023-03-03T09:34:47;100433.59;;;5.96;100.00
41830;BME280;38614;43.472;23.936;2023-03-03T09:37:36;100422.31;;;6.15;100.00
41830;BME280;38614;43.472;23.936;2023-03-03T09:40:51;100428.41;;;5.95;100.00
41830;BME280;38614;43.472;23.936;2023-03-03T09:47:14;100443.09;;;5.99;100.00
41830;BME280;38614;43.472;23.936;2023-03-03T09:50:15;100437.53;;;5.64;100.00
41830;BME280;38614;43.472;23.936;2023-03-03T09:53:18;100434.97;;;5.68;100.00
41830;BME280;38614;43.472;23.936;2023-03-03T09:57:12;100437.38;;;5.69;100.00
41830;BME280;38614;43.472;23.936;2023-03-03T10:03:02;100438.53;;;5.77;100.00
41830;BME280;38614;43.472;23.936;2023-03-03T10:12:26;100432.75;;;5.87;100.00
41830;BME280;38614;43.472;23.936;2023-03-03T10:15:31;100420.97;;;5.87;100.00
41830;BME280;38614;43.472;23.936;2023-03-03T10:21:49;100416.91;;;5.84;100.00
41830;BME280;38614;43.472;23.936;2023-03-03T10:24:48;100408.09;;;5.96;100.00
41830;BME280;38614;43.472;23.936;2023-03-03T10:37:47;100392.13;;;6.07;100.00
41830;BME280;38614;43.472;23.936;2023-03-03T10:56:49;100380.81;;;5.99;100.00
41830;BME280;38614;43.472;23.936;2023-03-03T11:07:30;100370.44;;;6.48;100.00
41830;BME280;38614;43.472;23.936;2023-03-03T11:13:13;100364.53;;;6.76;100.00
41830;BME280;38614;43.472;23.936;2023-03-03T11:16:24;100360.25;;;6.49;100.00
41830;BME280;38614;43.472;23.936;2023-03-03T11:25:49;100311.56;;;5.77;100.00
41830;BME280;38614;43.472;23.936;2023-03-03T11:28:54;100358.88;;;6.17;100.00
41830;BME280;38614;43.472;23.936;2023-03-03T11:38:08;100348.47;;;6.48;100.00
41830;BME280;38614;43.472;23.936;2023-03-03T11:41:10;100344.13;;;6.47;100.00
41830;BME280;38614;43.472;23.936;2023-03-03T11:47:03;100274.00;;;5.94;100.00
41830;BME280;38614;43.472;23.936;2023-03-03T11:50:02;100350.09;;;6.49;100.00
41830;BME280;38614;43.472;23.936;2023-03-03T11:56:06;100311.53;;;6.37;100.00
41830;BME280;38614;43.472;23.936;2023-03-03T12:01:55;100331.94;;;6.66;100.00
41830;BME280;38614;43.472;23.936;2023-03-03T12:04:49;100310.78;;;6.66;100.00
41830;BME280;38614;43.472;23.936;2023-03-03T12:10:45;100311.50;;;7.22;100.00
41830;BME280;38614;43.472;23.936;2023-03-03T12:13:55;100313.63;;;7.17;100.00
41830;BME280;38614;43.472;23.936;2023-03-03T12:16:53;100319.94;;;7.17;100.00
41830;BME280;38614;43.472;23.936;2023-03-03T12:23:07;100299.91;;;6.78;100.00
41830;BME280;38614;43.472;23.936;2023-03-03T12:26:08;100319.63;;;6.80;100.00
41830;BME280;38614;43.472;23.936;2023-03-03T12:29:05;100298.06;;;6.62;100.00
41830;BME280;38614;43.472;23.936;2023-03-03T12:47:52;100318.59;;;6.47;100.00
41830;BME280;38614;43.472;23.936;2023-03-03T13:03:03;100302.50;;;6.28;100.00
41830;BME280;38614;43.472;23.936;2023-03-03T13:13:02;100315.16;;;6.58;100.00
41830;BME280;38614;43.472;23.936;2023-03-03T13:16:08;100325.13;;;6.80;100.00
41830;BME280;38614;43.472;23.936;2023-03-03T13:19:15;100311.22;;;6.77;100.00
41830;BME280;38614;43.472;23.936;2023-03-03T13:22:39;100321.50;;;6.89;100.00
41830;BME280;38614;43.472;23.936;2023-03-03T13:25:48;100317.50;;;6.86;100.00
41830;BME280;38614;43.472;23.936;2023-03-03T13:32:27;100317.75;;;7.02;100.00
41830;BME280;38614;43.472;23.936;2023-03-03T13:38:05;100303.34;;;7.05;100.00
41830;BME280;38614;43.472;23.936;2023-03-03T13:41:21;100307.19;;;7.12;100.00
41830;BME280;38614;43.472;23.936;2023-03-03T13:44:11;100307.69;;;7.06;100.00
41830;BME280;38614;43.472;23.936;2023-03-03T13:56:47;100307.41;;;6.61;100.00
41830;BME280;38614;43.472;23.936;2023-03-03T14:06:11;100262.16;;;6.67;100.00
41830;BME280;38614;43.472;23.936;2023-03-03T14:09:14;100313.00;;;6.81;100.00
41830;BME280;38614;43.472;23.936;2023-03-03T14:15:25;100307.34;;;6.78;100.00
41830;BME280;38614;43.472;23.936;2023-03-03T14:21:15;100298.56;;;6.93;100.00
41830;BME280;38614;43.472;23.936;2023-03-03T14:27:20;100293.38;;;6.62;100.00
41830;BME280;38614;43.472;23.936;2023-03-03T14:30:35;100289.78;;;6.70;100.00
41830;BME280;38614;43.472;23.936;2023-03-03T14:33:35;100292.00;;;6.77;100.00
41830;BME280;38614;43.472;23.936;2023-03-03T14:36:42;100296.53;;;6.81;100.00
41830;BME280;38614;43.472;23.936;2023-03-03T14:39:33;100283.38;;;6.87;100.00
41830;BME280;38614;43.472;23.936;2023-03-03T14:42:36;100288.03;;;6.95;100.00
41830;BME280;38614;43.472;23.936;2023-03-03T14:45:39;100289.97;;;6.95;100.00
41830;BME280;38614;43.472;23.936;2023-03-03T14:48:27;100288.78;;;7.04;100.00
41830;BME280;38614;43.472;23.936;2023-03-03T14:51:31;100287.31;;;7.07;100.00
41830;BME280;38614;43.472;23.936;2023-03-03T14:54:24;100290.78;;;6.95;100.00
41830;BME280;38614;43.472;23.936;2023-03-03T15:03:22;100287.56;;;6.55;100.00
41830;BME280;38614;43.472;23.936;2023-03-03T15:06:49;100289.25;;;6.30;100.00
41830;BME280;38614;43.472;23.936;2023-03-03T15:09:47;100285.53;;;6.43;100.00
41830;BME280;38614;43.472;23.936;2023-03-03T15:12:38;100260.19;;;6.38;100.00
41830;BME280;38614;43.472;23.936;2023-03-03T15:15:27;100281.44;;;6.49;100.00
41830;BME280;38614;43.472;23.936;2023-03-03T15:18:16;100292.25;;;6.54;100.00
41830;BME280;38614;43.472;23.936;2023-03-03T15:21:12;100295.69;;;6.51;100.00
41830;BME280;38614;43.472;23.936;2023-03-03T15:24:18;100299.53;;;6.50;100.00
41830;BME280;38614;43.472;23.936;2023-03-03T15:37:03;100279.22;;;6.43;100.00
41830;BME280;38614;43.472;23.936;2023-03-03T15:46:12;100297.97;;;6.32;100.00
41830;BME280;38614;43.472;23.936;2023-03-03T16:05:21;100300.09;;;6.26;100.00
41830;BME280;38614;43.472;23.936;2023-03-03T16:08:21;100305.72;;;6.30;100.00
41830;BME280;38614;43.472;23.936;2023-03-03T16:11:17;100286.53;;;6.13;100.00
41830;BME280;38614;43.472;23.936;2023-03-03T16:17:29;100309.50;;;5.99;100.00
41830;BME280;38614;43.472;23.936;2023-03-03T16:20:38;100316.25;;;5.93;100.00
41830;BME280;38614;43.472;23.936;2023-03-03T16:23:47;100320.78;;;5.89;100.00
41830;BME280;38614;43.472;23.936;2023-03-03T16:29:44;100319.78;;;5.77;100.00
41830;BME280;38614;43.472;23.936;2023-03-03T16:32:43;100320.91;;;5.67;100.00
41830;BME280;38614;43.472;23.936;2023-03-03T16:35:59;100322.69;;;5.63;100.00
41830;BME280;38614;43.472;23.936;2023-03-03T16:39:45;100338.19;;;5.59;100.00
41830;BME280;38614;43.472;23.936;2023-03-03T16:42:30;100334.47;;;5.63;100.00
41830;BME280;38614;43.472;23.936;2023-03-03T16:48:43;100325.09;;;5.47;100.00
41830;BME280;38614;43.472;23.936;2023-03-03T16:51:44;100339.59;;;5.48;100.00
41830;BME280;38614;43.472;23.936;2023-03-03T17:20:03;100367.78;;;5.31;100.00
41830;BME280;38614;43.472;23.936;2023-03-03T17:29:38;100383.09;;;5.23;100.00
41830;BME280;38614;43.472;23.936;2023-03-03T17:32:43;100371.28;;;5.14;100.00
41830;BME280;38614;43.472;23.936;2023-03-03T17:39:08;100381.59;;;5.17;100.00
41830;BME280;38614;43.472;23.936;2023-03-03T17:45:27;100381.75;;;5.12;100.00
41830;BME280;38614;43.472;23.936;2023-03-03T17:57:51;100378.19;;;5.11;100.00
41830;BME280;38614;43.472;23.936;2023-03-03T18:00:49;100358.50;;;5.01;100.00
41830;BME280;38614;43.472;23.936;2023-03-03T18:07:06;100388.66;;;5.09;100.00
41830;BME280;38614;43.472;23.936;2023-03-03T18:13:23;100375.44;;;5.03;100.00
41830;BME280;38614;43.472;23.936;2023-03-03T18:22:47;100390.75;;;5.04;100.00
41830;BME280;38614;43.472;23.936;2023-03-03T18:29:24;100368.41;;;4.79;100.00
41830;BME280;38614;43.472;23.936;2023-03-03T18:32:20;100402.59;;;4.91;100.00
41830;BME280;38614;43.472;23.936;2023-03-03T18:38:23;100402.38;;;4.78;100.00
41830;BME280;38614;43.472;23.936;2023-03-03T18:41:22;100377.09;;;4.50;100.00
41830;BME280;38614;43.472;23.936;2023-03-03T18:44:29;100384.50;;;4.50;100.00
41830;BME280;38614;43.472;23.936;2023-03-03T18:47:24;100412.31;;;4.66;100.00
41830;BME280;38614;43.472;23.936;2023-03-03T18:53:36;100409.50;;;4.57;100.00
41830;BME280;38614;43.472;23.936;2023-03-03T18:56:44;100414.09;;;4.70;100.00
41830;BME280;38614;43.472;23.936;2023-03-03T19:02:32;100421.13;;;4.63;100.00
41830;BME280;38614;43.472;23.936;2023-03-03T19:05:46;100411.97;;;4.67;100.00
41830;BME280;38614;43.472;23.936;2023-03-03T19:08:54;100384.88;;;4.57;100.00
41830;BME280;38614;43.472;23.936;2023-03-03T19:11:54;100416.81;;;4.70;100.00
41830;BME280;38614;43.472;23.936;2023-03-03T19:14:46;100389.16;;;4.49;100.00
41830;BME280;38614;43.472;23.936;2023-03-03T19:20:37;100428.41;;;4.67;100.00
41830;BME280;38614;43.472;23.936;2023-03-03T19:23:51;100422.28;;;4.70;100.00
41830;BME280;38614;43.472;23.936;2023-03-03T19:26:57;100429.88;;;4.73;100.00
41830;BME280;38614;43.472;23.936;2023-03-03T19:30:26;100427.66;;;4.75;100.00
41830;BME280;38614;43.472;23.936;2023-03-03T19:36:05;100399.16;;;4.54;100.00
41830;BME280;38614;43.472;23.936;2023-03-03T19:45:48;100438.41;;;4.72;100.00
41830;BME280;38614;43.472;23.936;2023-03-03T19:49:11;100436.41;;;4.64;100.00
41830;BME280;38614;43.472;23.936;2023-03-03T19:52:02;100434.81;;;4.63;100.00
41830;BME280;38614;43.472;23.936;2023-03-03T19:55:23;100431.16;;;4.67;100.00
41830;BME280;38614;43.472;23.936;2023-03-03T20:08:21;100431.50;;;4.74;100.00
41830;BME280;38614;43.472;23.936;2023-03-03T20:23:47;100443.56;;;4.73;100.00
41830;BME280;38614;43.472;23.936;2023-03-03T20:27:00;100424.16;;;4.61;100.00
41830;BME280;38614;43.472;23.936;2023-03-03T20:30:07;100452.72;;;4.69;100.00
41830;BME280;38614;43.472;23.936;2023-03-03T20:50:46;100430.03;;;4.68;100.00
41830;BME280;38614;43.472;23.936;2023-03-03T21:00:11;100420.50;;;4.66;100.00
41830;BME280;38614;43.472;23.936;2023-03-03T21:03:30;100421.94;;;4.63;100.00
41830;BME280;38614;43.472;23.936;2023-03-03T21:06:36;100420.31;;;4.62;100.00
41830;BME280;38614;43.472;23.936;2023-03-03T21:09:37;100408.88;;;4.60;100.00
41830;BME280;38614;43.472;23.936;2023-03-03T21:12:29;100404.31;;;4.55;100.00